sensor_id;sensor_type;location;lat;lon;timestamp;P1;durP1;ratioP1;P2;durP2;ratioP2
34657;SDS011;20865;43.312;27.152;2022-09-17T00:01:16;17.48;;;3.62;;
34657;SDS011;20865;43.312;27.152;2022-09-17T00:03:50;12.70;;;4.00;;
34657;SDS011;20865;43.312;27.152;2022-09-17T00:06:20;13.68;;;3.75;;
34657;SDS011;20865;43.312;27.152;2022-09-17T00:08:49;14.80;;;3.77;;
34657;SDS011;20865;43.312;27.152;2022-09-17T00:11:19;9.95;;;3.85;;
34657;SDS011;20865;43.312;27.152;2022-09-17T00:13:47;15.65;;;4.20;;
34657;SDS011;20865;43.312;27.152;2022-09-17T00:16:24;12.73;;;3.70;;
34657;SDS011;20865;43.312;27.152;2022-09-17T00:18:58;17.70;;;4.70;;
34657;SDS011;20865;43.312;27.152;2022-09-17T00:21:27;20.12;;;3.58;;
34657;SDS011;20865;43.312;27.152;2022-09-17T00:23:55;12.25;;;4.05;;
34657;SDS011;20865;43.312;27.152;2022-09-17T00:26:25;14.35;;;3.85;;
34657;SDS011;20865;43.312;27.152;2022-09-17T00:28:53;11.53;;;3.42;;
34657;SDS011;20865;43.312;27.152;2022-09-17T00:31:23;15.53;;;3.87;;
34657;SDS011;20865;43.312;27.152;2022-09-17T00:33:52;9.75;;;3.60;;
34657;SDS011;20865;43.312;27.152;2022-09-17T00:36:20;12.60;;;4.37;;
34657;SDS011;20865;43.312;27.152;2022-09-17T00:38:49;19.48;;;4.72;;
34657;SDS011;20865;43.312;27.152;2022-09-17T00:41:18;8.45;;;3.65;;
34657;SDS011;20865;43.312;27.152;2022-09-17T00:43:50;12.10;;;3.52;;
34657;SDS011;20865;43.312;27.152;2022-09-17T00:48:53;13.93;;;3.95;;
34657;SDS011;20865;43.312;27.152;2022-09-17T00:51:27;16.07;;;4.25;;
34657;SDS011;20865;43.312;27.152;2022-09-17T00:53:53;13.90;;;3.98;;
34657;SDS011;20865;43.312;27.152;2022-09-17T00:56:22;19.05;;;4.30;;
34657;SDS011;20865;43.312;27.152;2022-09-17T00:58:55;20.55;;;4.55;;
34657;SDS011;20865;43.312;27.152;2022-09-17T01:01:23;12.47;;;4.03;;
34657;SDS011;20865;43.312;27.152;2022-09-17T01:03:50;13.35;;;4.05;;
34657;SDS011;20865;43.312;27.152;2022-09-17T01:09:04;10.60;;;4.07;;
34657;SDS011;20865;43.312;27.152;2022-09-17T01:11:57;12.43;;;4.15;;
34657;SDS011;20865;43.312;27.152;2022-09-17T01:23:16;21.50;;;4.05;;
34657;SDS011;20865;43.312;27.152;2022-09-17T01:28:43;10.18;;;3.37;;
34657;SDS011;20865;43.312;27.152;2022-09-17T01:34:32;13.53;;;3.83;;
34657;SDS011;20865;43.312;27.152;2022-09-17T01:36:25;15.38;;;4.12;;
34657;SDS011;20865;43.312;27.152;2022-09-17T01:39:15;14.65;;;3.45;;
34657;SDS011;20865;43.312;27.152;2022-09-17T01:49:36;18.55;;;3.67;;
34657;SDS011;20865;43.312;27.152;2022-09-17T01:52:06;14.80;;;4.78;;
34657;SDS011;20865;43.312;27.152;2022-09-17T01:54:38;16.77;;;4.37;;
34657;SDS011;20865;43.312;27.152;2022-09-17T01:57:14;14.00;;;4.60;;
34657;SDS011;20865;43.312;27.152;2022-09-17T02:00:04;17.35;;;3.95;;
34657;SDS011;20865;43.312;27.152;2022-09-17T02:02:34;17.85;;;4.08;;
34657;SDS011;20865;43.312;27.152;2022-09-17T02:05:08;13.50;;;4.35;;
34657;SDS011;20865;43.312;27.152;2022-09-17T02:07:40;14.40;;;4.75;;
34657;SDS011;20865;43.312;27.152;2022-09-17T02:10:11;14.30;;;4.12;;
34657;SDS011;20865;43.312;27.152;2022-09-17T02:12:48;16.48;;;4.35;;
34657;SDS011;20865;43.312;27.152;2022-09-17T02:15:22;11.45;;;4.50;;
34657;SDS011;20865;43.312;27.152;2022-09-17T02:17:48;19.48;;;5.08;;
34657;SDS011;20865;43.312;27.152;2022-09-17T02:20:23;14.30;;;4.60;;
34657;SDS011;20865;43.312;27.152;2022-09-17T02:22:56;16.90;;;4.10;;
34657;SDS011;20865;43.312;27.152;2022-09-17T02:25:35;15.58;;;4.30;;
34657;SDS011;20865;43.312;27.152;2022-09-17T02:30:39;13.18;;;3.50;;
34657;SDS011;20865;43.312;27.152;2022-09-17T02:33:07;14.28;;;3.67;;
34657;SDS011;20865;43.312;27.152;2022-09-17T02:35:37;9.98;;;3.80;;
34657;SDS011;20865;43.312;27.152;2022-09-17T02:38:05;12.75;;;3.95;;
34657;SDS011;20865;43.312;27.152;2022-09-17T02:40:34;16.65;;;4.10;;
34657;SDS011;20865;43.312;27.152;2022-09-17T02:43:14;15.60;;;3.55;;
34657;SDS011;20865;43.312;27.152;2022-09-17T02:46:00;13.90;;;4.15;;
34657;SDS011;20865;43.312;27.152;2022-09-17T02:59:32;9.85;;;3.72;;
34657;SDS011;20865;43.312;27.152;2022-09-17T03:02:11;21.75;;;4.40;;
34657;SDS011;20865;43.312;27.152;2022-09-17T03:04:38;15.45;;;4.12;;
34657;SDS011;20865;43.312;27.152;2022-09-17T03:07:07;17.37;;;4.33;;
34657;SDS011;20865;43.312;27.152;2022-09-17T03:09:39;16.75;;;6.42;;
34657;SDS011;20865;43.312;27.152;2022-09-17T03:12:08;25.20;;;8.00;;
34657;SDS011;20865;43.312;27.152;2022-09-17T03:14:37;21.68;;;7.75;;
34657;SDS011;20865;43.312;27.152;2022-09-17T03:17:04;14.47;;;4.15;;
34657;SDS011;20865;43.312;27.152;2022-09-17T03:19:32;14.58;;;4.87;;
34657;SDS011;20865;43.312;27.152;2022-09-17T03:21:59;16.15;;;5.22;;
34657;SDS011;20865;43.312;27.152;2022-09-17T03:24:27;26.75;;;6.65;;
34657;SDS011;20865;43.312;27.152;2022-09-17T03:26:55;23.02;;;7.17;;
34657;SDS011;20865;43.312;27.152;2022-09-17T03:29:23;23.30;;;8.40;;
34657;SDS011;20865;43.312;27.152;2022-09-17T03:31:50;19.75;;;9.28;;
34657;SDS011;20865;43.312;27.152;2022-09-17T03:34:18;17.07;;;7.05;;
34657;SDS011;20865;43.312;27.152;2022-09-17T03:36:46;22.02;;;6.83;;
34657;SDS011;20865;43.312;27.152;2022-09-17T03:39:13;12.70;;;5.80;;
34657;SDS011;20865;43.312;27.152;2022-09-17T03:41:41;19.12;;;6.00;;
34657;SDS011;20865;43.312;27.152;2022-09-17T03:44:09;18.57;;;5.60;;
34657;SDS011;20865;43.312;27.152;2022-09-17T03:46:36;21.80;;;6.95;;
34657;SDS011;20865;43.312;27.152;2022-09-17T03:49:04;16.97;;;5.97;;
34657;SDS011;20865;43.312;27.152;2022-09-17T03:51:31;18.73;;;5.67;;
34657;SDS011;20865;43.312;27.152;2022-09-17T03:53:59;13.00;;;5.45;;
34657;SDS011;20865;43.312;27.152;2022-09-17T03:56:27;18.55;;;6.05;;
34657;SDS011;20865;43.312;27.152;2022-09-17T03:58:59;12.68;;;5.75;;
34657;SDS011;20865;43.312;27.152;2022-09-17T04:01:27;19.12;;;5.37;;
34657;SDS011;20865;43.312;27.152;2022-09-17T04:03:55;22.20;;;6.45;;
34657;SDS011;20865;43.312;27.152;2022-09-17T04:06:23;21.82;;;5.17;;
34657;SDS011;20865;43.312;27.152;2022-09-17T04:08:50;16.85;;;4.97;;
34657;SDS011;20865;43.312;27.152;2022-09-17T04:11:18;17.45;;;5.72;;
34657;SDS011;20865;43.312;27.152;2022-09-17T04:13:45;15.98;;;6.55;;
34657;SDS011;20865;43.312;27.152;2022-09-17T04:16:13;17.62;;;7.97;;
34657;SDS011;20865;43.312;27.152;2022-09-17T04:18:41;26.05;;;8.83;;
34657;SDS011;20865;43.312;27.152;2022-09-17T04:21:08;25.30;;;8.85;;
34657;SDS011;20865;43.312;27.152;2022-09-17T04:23:36;27.82;;;8.53;;
34657;SDS011;20865;43.312;27.152;2022-09-17T04:26:04;22.30;;;7.53;;
34657;SDS011;20865;43.312;27.152;2022-09-17T04:28:31;19.55;;;6.97;;
34657;SDS011;20865;43.312;27.152;2022-09-17T04:30:59;39.05;;;13.38;;
34657;SDS011;20865;43.312;27.152;2022-09-17T04:33:27;62.65;;;24.50;;
34657;SDS011;20865;43.312;27.152;2022-09-17T04:35:54;53.55;;;19.35;;
34657;SDS011;20865;43.312;27.152;2022-09-17T04:38:22;52.88;;;17.50;;
34657;SDS011;20865;43.312;27.152;2022-09-17T04:40:49;43.15;;;15.58;;
34657;SDS011;20865;43.312;27.152;2022-09-17T04:43:18;37.13;;;12.28;;
34657;SDS011;20865;43.312;27.152;2022-09-17T04:45:46;53.00;;;12.28;;
34657;SDS011;20865;43.312;27.152;2022-09-17T04:48:15;28.83;;;9.28;;
34657;SDS011;20865;43.312;27.152;2022-09-17T04:50:43;45.60;;;12.45;;
34657;SDS011;20865;43.312;27.152;2022-09-17T04:53:10;68.00;;;24.35;;
34657;SDS011;20865;43.312;27.152;2022-09-17T04:55:38;52.53;;;20.48;;
34657;SDS011;20865;43.312;27.152;2022-09-17T04:58:06;50.33;;;20.77;;
34657;SDS011;20865;43.312;27.152;2022-09-17T05:00:33;40.30;;;15.38;;
34657;SDS011;20865;43.312;27.152;2022-09-17T05:03:01;30.20;;;11.48;;
34657;SDS011;20865;43.312;27.152;2022-09-17T05:05:29;29.63;;;9.60;;
34657;SDS011;20865;43.312;27.152;2022-09-17T05:07:56;27.62;;;11.10;;
34657;SDS011;20865;43.312;27.152;2022-09-17T05:10:24;36.60;;;11.35;;
34657;SDS011;20865;43.312;27.152;2022-09-17T05:12:55;31.40;;;11.78;;
34657;SDS011;20865;43.312;27.152;2022-09-17T05:15:23;36.38;;;13.90;;
34657;SDS011;20865;43.312;27.152;2022-09-17T05:17:52;27.07;;;12.82;;
34657;SDS011;20865;43.312;27.152;2022-09-17T05:20:20;28.00;;;12.23;;
34657;SDS011;20865;43.312;27.152;2022-09-17T05:22:48;39.00;;;13.43;;
34657;SDS011;20865;43.312;27.152;2022-09-17T05:25:18;45.63;;;13.93;;
34657;SDS011;20865;43.312;27.152;2022-09-17T05:27:48;32.48;;;11.10;;
34657;SDS011;20865;43.312;27.152;2022-09-17T05:30:17;29.23;;;11.40;;
34657;SDS011;20865;43.312;27.152;2022-09-17T05:32:44;31.75;;;10.98;;
34657;SDS011;20865;43.312;27.152;2022-09-17T05:35:13;27.87;;;10.08;;
34657;SDS011;20865;43.312;27.152;2022-09-17T05:37:40;28.77;;;10.50;;
34657;SDS011;20865;43.312;27.152;2022-09-17T05:40:08;34.60;;;10.75;;
34657;SDS011;20865;43.312;27.152;2022-09-17T05:42:36;24.23;;;9.13;;
34657;SDS011;20865;43.312;27.152;2022-09-17T05:45:04;21.42;;;9.65;;
34657;SDS011;20865;43.312;27.152;2022-09-17T05:47:32;24.10;;;10.38;;
34657;SDS011;20865;43.312;27.152;2022-09-17T05:49:59;27.10;;;10.55;;
34657;SDS011;20865;43.312;27.152;2022-09-17T05:52:28;29.80;;;10.25;;
34657;SDS011;20865;43.312;27.152;2022-09-17T05:54:55;30.57;;;9.50;;
34657;SDS011;20865;43.312;27.152;2022-09-17T05:57:25;25.25;;;9.80;;
34657;SDS011;20865;43.312;27.152;2022-09-17T05:59:55;28.90;;;9.85;;
34657;SDS011;20865;43.312;27.152;2022-09-17T06:02:22;87.78;;;13.03;;
34657;SDS011;20865;43.312;27.152;2022-09-17T06:04:50;28.47;;;9.83;;
34657;SDS011;20865;43.312;27.152;2022-09-17T06:07:17;39.70;;;10.18;;
34657;SDS011;20865;43.312;27.152;2022-09-17T06:09:45;20.85;;;8.60;;
34657;SDS011;20865;43.312;27.152;2022-09-17T06:12:12;25.65;;;10.93;;
34657;SDS011;20865;43.312;27.152;2022-09-17T06:14:40;19.92;;;8.48;;
34657;SDS011;20865;43.312;27.152;2022-09-17T06:17:07;32.30;;;8.63;;
34657;SDS011;20865;43.312;27.152;2022-09-17T06:19:35;22.82;;;7.72;;
34657;SDS011;20865;43.312;27.152;2022-09-17T06:22:03;15.83;;;7.30;;
34657;SDS011;20865;43.312;27.152;2022-09-17T06:24:31;21.48;;;7.40;;
34657;SDS011;20865;43.312;27.152;2022-09-17T06:26:58;26.40;;;8.38;;
34657;SDS011;20865;43.312;27.152;2022-09-17T06:29:26;28.47;;;8.40;;
34657;SDS011;20865;43.312;27.152;2022-09-17T06:31:53;16.77;;;7.90;;
34657;SDS011;20865;43.312;27.152;2022-09-17T06:34:21;32.83;;;8.55;;
34657;SDS011;20865;43.312;27.152;2022-09-17T06:36:49;18.17;;;8.53;;
34657;SDS011;20865;43.312;27.152;2022-09-17T06:39:16;19.95;;;8.35;;
34657;SDS011;20865;43.312;27.152;2022-09-17T06:41:44;32.03;;;9.73;;
34657;SDS011;20865;43.312;27.152;2022-09-17T06:44:12;21.35;;;9.05;;
34657;SDS011;20865;43.312;27.152;2022-09-17T06:46:39;24.32;;;7.60;;
34657;SDS011;20865;43.312;27.152;2022-09-17T06:49:08;32.03;;;9.63;;
34657;SDS011;20865;43.312;27.152;2022-09-17T06:51:36;30.30;;;8.70;;
34657;SDS011;20865;43.312;27.152;2022-09-17T06:54:03;20.80;;;8.83;;
34657;SDS011;20865;43.312;27.152;2022-09-17T06:56:31;20.95;;;9.50;;
34657;SDS011;20865;43.312;27.152;2022-09-17T06:58:59;26.23;;;9.55;;
34657;SDS011;20865;43.312;27.152;2022-09-17T07:01:26;30.48;;;10.15;;
34657;SDS011;20865;43.312;27.152;2022-09-17T07:03:54;26.07;;;9.20;;
34657;SDS011;20865;43.312;27.152;2022-09-17T07:06:22;30.35;;;8.13;;
34657;SDS011;20865;43.312;27.152;2022-09-17T07:08:49;18.95;;;8.35;;
34657;SDS011;20865;43.312;27.152;2022-09-17T07:11:17;22.73;;;9.05;;
34657;SDS011;20865;43.312;27.152;2022-09-17T07:13:45;33.83;;;9.38;;
34657;SDS011;20865;43.312;27.152;2022-09-17T07:16:12;28.00;;;8.78;;
34657;SDS011;20865;43.312;27.152;2022-09-17T07:18:40;24.18;;;7.37;;
34657;SDS011;20865;43.312;27.152;2022-09-17T07:21:08;24.77;;;8.68;;
34657;SDS011;20865;43.312;27.152;2022-09-17T07:23:36;19.80;;;8.10;;
34657;SDS011;20865;43.312;27.152;2022-09-17T07:26:04;24.47;;;8.33;;
34657;SDS011;20865;43.312;27.152;2022-09-17T07:28:34;20.85;;;7.42;;
34657;SDS011;20865;43.312;27.152;2022-09-17T07:31:04;27.67;;;7.37;;
34657;SDS011;20865;43.312;27.152;2022-09-17T07:33:33;26.80;;;7.15;;
34657;SDS011;20865;43.312;27.152;2022-09-17T07:36:05;23.47;;;6.70;;
34657;SDS011;20865;43.312;27.152;2022-09-17T07:38:35;32.50;;;7.47;;
34657;SDS011;20865;43.312;27.152;2022-09-17T07:41:05;17.32;;;5.37;;
34657;SDS011;20865;43.312;27.152;2022-09-17T07:43:34;28.07;;;5.83;;
34657;SDS011;20865;43.312;27.152;2022-09-17T07:46:03;23.22;;;7.37;;
34657;SDS011;20865;43.312;27.152;2022-09-17T07:48:32;17.57;;;6.10;;
34657;SDS011;20865;43.312;27.152;2022-09-17T07:51:00;13.65;;;4.97;;
34657;SDS011;20865;43.312;27.152;2022-09-17T07:53:28;20.52;;;5.08;;
34657;SDS011;20865;43.312;27.152;2022-09-17T07:55:58;28.55;;;5.58;;
34657;SDS011;20865;43.312;27.152;2022-09-17T07:58:28;31.07;;;5.00;;
34657;SDS011;20865;43.312;27.152;2022-09-17T08:01:05;39.63;;;5.45;;
34657;SDS011;20865;43.312;27.152;2022-09-17T08:03:34;22.37;;;4.10;;
34657;SDS011;20865;43.312;27.152;2022-09-17T08:06:11;25.48;;;4.50;;
34657;SDS011;20865;43.312;27.152;2022-09-17T08:08:40;13.08;;;4.30;;
34657;SDS011;20865;43.312;27.152;2022-09-17T08:11:12;16.93;;;4.45;;
34657;SDS011;20865;43.312;27.152;2022-09-17T08:13:42;16.27;;;4.67;;
34657;SDS011;20865;43.312;27.152;2022-09-17T08:16:11;21.65;;;4.80;;
34657;SDS011;20865;43.312;27.152;2022-09-17T08:18:39;17.32;;;4.08;;
34657;SDS011;20865;43.312;27.152;2022-09-17T08:21:12;15.80;;;4.28;;
34657;SDS011;20865;43.312;27.152;2022-09-17T08:23:41;14.98;;;4.12;;
34657;SDS011;20865;43.312;27.152;2022-09-17T08:26:15;15.43;;;4.05;;
34657;SDS011;20865;43.312;27.152;2022-09-17T08:28:43;23.60;;;4.50;;
34657;SDS011;20865;43.312;27.152;2022-09-17T08:31:12;18.12;;;4.90;;
34657;SDS011;20865;43.312;27.152;2022-09-17T08:33:41;17.60;;;3.95;;
34657;SDS011;20865;43.312;27.152;2022-09-17T08:36:10;12.10;;;4.08;;
34657;SDS011;20865;43.312;27.152;2022-09-17T08:38:39;19.92;;;4.12;;
34657;SDS011;20865;43.312;27.152;2022-09-17T08:44:06;16.63;;;4.87;;
34657;SDS011;20865;43.312;27.152;2022-09-17T08:46:46;18.57;;;4.87;;
34657;SDS011;20865;43.312;27.152;2022-09-17T08:54:49;10.78;;;4.05;;
34657;SDS011;20865;43.312;27.152;2022-09-17T08:57:37;13.88;;;4.42;;
34657;SDS011;20865;43.312;27.152;2022-09-17T09:00:19;19.20;;;4.05;;
34657;SDS011;20865;43.312;27.152;2022-09-17T09:05:22;12.90;;;3.83;;
34657;SDS011;20865;43.312;27.152;2022-09-17T09:10:54;13.38;;;3.37;;
34657;SDS011;20865;43.312;27.152;2022-09-17T09:13:28;18.27;;;4.05;;
34657;SDS011;20865;43.312;27.152;2022-09-17T09:16:02;21.15;;;4.03;;
34657;SDS011;20865;43.312;27.152;2022-09-17T09:18:30;13.05;;;4.03;;
34657;SDS011;20865;43.312;27.152;2022-09-17T09:21:11;17.25;;;3.87;;
34657;SDS011;20865;43.312;27.152;2022-09-17T09:23:53;22.13;;;4.65;;
34657;SDS011;20865;43.312;27.152;2022-09-17T09:34:44;17.27;;;4.15;;
34657;SDS011;20865;43.312;27.152;2022-09-17T09:37:18;19.92;;;3.98;;
34657;SDS011;20865;43.312;27.152;2022-09-17T09:39:53;23.35;;;4.50;;
34657;SDS011;20865;43.312;27.152;2022-09-17T09:42:30;17.67;;;3.50;;
34657;SDS011;20865;43.312;27.152;2022-09-17T09:45:00;11.28;;;3.50;;
34657;SDS011;20865;43.312;27.152;2022-09-17T09:47:52;13.18;;;3.35;;
34657;SDS011;20865;43.312;27.152;2022-09-17T09:53:17;15.68;;;4.08;;
34657;SDS011;20865;43.312;27.152;2022-09-17T09:55:53;18.82;;;4.10;;
34657;SDS011;20865;43.312;27.152;2022-09-17T10:00:49;15.88;;;3.77;;
34657;SDS011;20865;43.312;27.152;2022-09-17T10:03:21;12.23;;;3.80;;
34657;SDS011;20865;43.312;27.152;2022-09-17T10:06:05;22.15;;;4.60;;
34657;SDS011;20865;43.312;27.152;2022-09-17T10:08:35;18.10;;;3.55;;
34657;SDS011;20865;43.312;27.152;2022-09-17T10:13:34;12.75;;;3.08;;
34657;SDS011;20865;43.312;27.152;2022-09-17T10:16:19;10.40;;;3.45;;
34657;SDS011;20865;43.312;27.152;2022-09-17T10:21:34;8.80;;;3.15;;
34657;SDS011;20865;43.312;27.152;2022-09-17T10:24:04;7.95;;;3.10;;
34657;SDS011;20865;43.312;27.152;2022-09-17T10:26:37;19.87;;;3.62;;
34657;SDS011;20865;43.312;27.152;2022-09-17T10:29:05;13.08;;;3.40;;
34657;SDS011;20865;43.312;27.152;2022-09-17T10:31:47;15.08;;;3.02;;
34657;SDS011;20865;43.312;27.152;2022-09-17T10:34:23;19.90;;;3.40;;
34657;SDS011;20865;43.312;27.152;2022-09-17T10:36:58;11.10;;;3.50;;
34657;SDS011;20865;43.312;27.152;2022-09-17T10:42:03;13.78;;;3.37;;
34657;SDS011;20865;43.312;27.152;2022-09-17T10:44:40;12.85;;;2.90;;
34657;SDS011;20865;43.312;27.152;2022-09-17T10:47:24;16.32;;;3.33;;
34657;SDS011;20865;43.312;27.152;2022-09-17T10:50:04;17.25;;;3.12;;
34657;SDS011;20865;43.312;27.152;2022-09-17T10:52:34;11.08;;;2.98;;
34657;SDS011;20865;43.312;27.152;2022-09-17T10:55:06;15.63;;;3.45;;
34657;SDS011;20865;43.312;27.152;2022-09-17T10:57:48;14.45;;;3.50;;
34657;SDS011;20865;43.312;27.152;2022-09-17T11:00:16;14.53;;;3.65;;
34657;SDS011;20865;43.312;27.152;2022-09-17T11:11:17;22.42;;;3.60;;
34657;SDS011;20865;43.312;27.152;2022-09-17T11:16:52;18.42;;;4.12;;
34657;SDS011;20865;43.312;27.152;2022-09-17T11:28:07;17.07;;;3.42;;
34657;SDS011;20865;43.312;27.152;2022-09-17T11:35:51;24.65;;;3.27;;
34657;SDS011;20865;43.312;27.152;2022-09-17T11:38:26;12.00;;;3.35;;
34657;SDS011;20865;43.312;27.152;2022-09-17T11:43:46;14.87;;;2.70;;
34657;SDS011;20865;43.312;27.152;2022-09-17T11:49:04;25.95;;;3.58;;
34657;SDS011;20865;43.312;27.152;2022-09-17T11:51:37;8.88;;;2.80;;
34657;SDS011;20865;43.312;27.152;2022-09-17T11:57:38;17.30;;;3.15;;
34657;SDS011;20865;43.312;27.152;2022-09-17T12:05:24;10.00;;;2.42;;
34657;SDS011;20865;43.312;27.152;2022-09-17T12:13:35;14.83;;;2.72;;
34657;SDS011;20865;43.312;27.152;2022-09-17T12:16:20;10.72;;;2.42;;
34657;SDS011;20865;43.312;27.152;2022-09-17T12:27:02;13.55;;;2.25;;
34657;SDS011;20865;43.312;27.152;2022-09-17T12:44:28;11.70;;;2.27;;
34657;SDS011;20865;43.312;27.152;2022-09-17T12:52:38;18.27;;;2.42;;
34657;SDS011;20865;43.312;27.152;2022-09-17T13:00:13;13.38;;;2.58;;
34657;SDS011;20865;43.312;27.152;2022-09-17T13:02:47;12.47;;;2.00;;
34657;SDS011;20865;43.312;27.152;2022-09-17T13:05:32;10.38;;;2.12;;
34657;SDS011;20865;43.312;27.152;2022-09-17T13:16:59;10.35;;;1.95;;
34657;SDS011;20865;43.312;27.152;2022-09-17T13:19:34;17.23;;;2.02;;
34657;SDS011;20865;43.312;27.152;2022-09-17T13:22:12;7.45;;;2.00;;
34657;SDS011;20865;43.312;27.152;2022-09-17T13:24:46;11.18;;;1.80;;
34657;SDS011;20865;43.312;27.152;2022-09-17T13:27:24;8.93;;;1.72;;
34657;SDS011;20865;43.312;27.152;2022-09-17T16:14:58;10.30;;;2.40;;
34657;SDS011;20865;43.312;27.152;2022-09-17T16:17:28;6.85;;;2.05;;
34657;SDS011;20865;43.312;27.152;2022-09-17T16:20:06;8.58;;;2.70;;
34657;SDS011;20865;43.312;27.152;2022-09-17T16:23:11;8.78;;;2.37;;
34657;SDS011;20865;43.312;27.152;2022-09-17T16:29:04;5.95;;;2.47;;
34657;SDS011;20865;43.312;27.152;2022-09-17T16:31:40;16.37;;;2.75;;
34657;SDS011;20865;43.312;27.152;2022-09-17T16:34:09;8.23;;;2.52;;
34657;SDS011;20865;43.312;27.152;2022-09-17T16:36:36;10.15;;;2.90;;
34657;SDS011;20865;43.312;27.152;2022-09-17T16:39:04;7.83;;;3.10;;
34657;SDS011;20865;43.312;27.152;2022-09-17T16:41:32;7.12;;;2.60;;
34657;SDS011;20865;43.312;27.152;2022-09-17T16:44:00;8.80;;;2.00;;
34657;SDS011;20865;43.312;27.152;2022-09-17T16:46:28;10.38;;;2.10;;
34657;SDS011;20865;43.312;27.152;2022-09-17T16:48:55;7.90;;;2.17;;
34657;SDS011;20865;43.312;27.152;2022-09-17T16:51:24;6.10;;;1.77;;
34657;SDS011;20865;43.312;27.152;2022-09-17T16:53:52;7.37;;;2.12;;
34657;SDS011;20865;43.312;27.152;2022-09-17T16:56:21;6.00;;;1.87;;
34657;SDS011;20865;43.312;27.152;2022-09-17T16:58:52;6.05;;;2.10;;
34657;SDS011;20865;43.312;27.152;2022-09-17T17:01:21;6.50;;;2.02;;
34657;SDS011;20865;43.312;27.152;2022-09-17T17:03:51;10.18;;;2.22;;
34657;SDS011;20865;43.312;27.152;2022-09-17T17:06:20;4.67;;;1.87;;
34657;SDS011;20865;43.312;27.152;2022-09-17T17:08:48;5.85;;;2.87;;
34657;SDS011;20865;43.312;27.152;2022-09-17T17:11:16;12.65;;;3.10;;
34657;SDS011;20865;43.312;27.152;2022-09-17T17:13:44;9.40;;;3.50;;
34657;SDS011;20865;43.312;27.152;2022-09-17T17:16:12;6.67;;;3.50;;
34657;SDS011;20865;43.312;27.152;2022-09-17T17:18:41;7.80;;;3.67;;
34657;SDS011;20865;43.312;27.152;2022-09-17T17:21:10;10.82;;;3.15;;
34657;SDS011;20865;43.312;27.152;2022-09-17T17:23:39;5.25;;;2.55;;
34657;SDS011;20865;43.312;27.152;2022-09-17T17:26:11;8.73;;;2.20;;
34657;SDS011;20865;43.312;27.152;2022-09-17T17:28:40;11.08;;;3.50;;
34657;SDS011;20865;43.312;27.152;2022-09-17T17:31:08;5.05;;;2.47;;
34657;SDS011;20865;43.312;27.152;2022-09-17T17:33:36;7.83;;;2.45;;
34657;SDS011;20865;43.312;27.152;2022-09-17T17:36:04;16.67;;;3.87;;
34657;SDS011;20865;43.312;27.152;2022-09-17T17:38:32;12.10;;;3.45;;
34657;SDS011;20865;43.312;27.152;2022-09-17T17:41:05;12.88;;;4.05;;
34657;SDS011;20865;43.312;27.152;2022-09-17T17:43:31;16.10;;;3.22;;
34657;SDS011;20865;43.312;27.152;2022-09-17T17:45:58;15.88;;;5.62;;
34657;SDS011;20865;43.312;27.152;2022-09-17T17:48:26;10.25;;;4.22;;
34657;SDS011;20865;43.312;27.152;2022-09-17T17:50:54;17.77;;;3.52;;
34657;SDS011;20865;43.312;27.152;2022-09-17T17:53:23;14.20;;;4.33;;
34657;SDS011;20865;43.312;27.152;2022-09-17T17:55:58;9.35;;;3.35;;
34657;SDS011;20865;43.312;27.152;2022-09-17T17:58:28;12.33;;;2.70;;
34657;SDS011;20865;43.312;27.152;2022-09-17T18:00:55;8.53;;;3.10;;
34657;SDS011;20865;43.312;27.152;2022-09-17T18:03:25;11.38;;;4.00;;
34657;SDS011;20865;43.312;27.152;2022-09-17T18:05:53;10.23;;;2.92;;
34657;SDS011;20865;43.312;27.152;2022-09-17T18:11:52;18.42;;;4.53;;
34657;SDS011;20865;43.312;27.152;2022-09-17T18:14:35;14.47;;;3.87;;
34657;SDS011;20865;43.312;27.152;2022-09-17T18:17:27;16.20;;;3.22;;
34657;SDS011;20865;43.312;27.152;2022-09-17T18:19:56;5.15;;;1.87;;
34657;SDS011;20865;43.312;27.152;2022-09-17T18:22:23;9.38;;;3.33;;
34657;SDS011;20865;43.312;27.152;2022-09-17T18:24:51;8.85;;;3.12;;
34657;SDS011;20865;43.312;27.152;2022-09-17T18:27:18;11.15;;;2.30;;
34657;SDS011;20865;43.312;27.152;2022-09-17T18:29:46;13.22;;;2.35;;
34657;SDS011;20865;43.312;27.152;2022-09-17T18:32:13;6.97;;;2.37;;
34657;SDS011;20865;43.312;27.152;2022-09-17T18:34:41;7.55;;;2.37;;
34657;SDS011;20865;43.312;27.152;2022-09-17T18:37:08;7.58;;;2.27;;
34657;SDS011;20865;43.312;27.152;2022-09-17T18:39:36;12.43;;;2.37;;
34657;SDS011;20865;43.312;27.152;2022-09-17T18:42:03;10.68;;;1.70;;
34657;SDS011;20865;43.312;27.152;2022-09-17T18:44:31;6.35;;;1.70;;
34657;SDS011;20865;43.312;27.152;2022-09-17T18:46:59;9.30;;;2.52;;
34657;SDS011;20865;43.312;27.152;2022-09-17T18:49:26;11.10;;;1.82;;
34657;SDS011;20865;43.312;27.152;2022-09-17T18:51:55;3.95;;;1.37;;
34657;SDS011;20865;43.312;27.152;2022-09-17T18:54:23;4.60;;;1.35;;
34657;SDS011;20865;43.312;27.152;2022-09-17T18:56:50;7.67;;;1.87;;
34657;SDS011;20865;43.312;27.152;2022-09-17T18:59:18;4.92;;;1.40;;
34657;SDS011;20865;43.312;27.152;2022-09-17T19:01:47;5.08;;;1.15;;
34657;SDS011;20865;43.312;27.152;2022-09-17T19:04:14;5.20;;;1.22;;
34657;SDS011;20865;43.312;27.152;2022-09-17T19:06:43;5.00;;;1.40;;
34657;SDS011;20865;43.312;27.152;2022-09-17T19:09:11;5.45;;;1.35;;
34657;SDS011;20865;43.312;27.152;2022-09-17T19:11:38;2.37;;;1.15;;
34657;SDS011;20865;43.312;27.152;2022-09-17T19:14:07;5.28;;;1.40;;
34657;SDS011;20865;43.312;27.152;2022-09-17T19:16:35;7.28;;;1.70;;
34657;SDS011;20865;43.312;27.152;2022-09-17T19:19:03;7.42;;;1.30;;
34657;SDS011;20865;43.312;27.152;2022-09-17T19:21:30;7.58;;;2.30;;
34657;SDS011;20865;43.312;27.152;2022-09-17T19:23:58;5.78;;;2.77;;
34657;SDS011;20865;43.312;27.152;2022-09-17T19:26:27;7.42;;;2.05;;
34657;SDS011;20865;43.312;27.152;2022-09-17T19:28:55;5.95;;;2.27;;
34657;SDS011;20865;43.312;27.152;2022-09-17T19:31:26;7.45;;;2.22;;
34657;SDS011;20865;43.312;27.152;2022-09-17T19:33:53;8.05;;;2.30;;
34657;SDS011;20865;43.312;27.152;2022-09-17T19:36:23;10.32;;;3.87;;
34657;SDS011;20865;43.312;27.152;2022-09-17T19:38:51;14.07;;;3.35;;
34657;SDS011;20865;43.312;27.152;2022-09-17T19:41:19;8.13;;;2.85;;
34657;SDS011;20865;43.312;27.152;2022-09-17T19:43:49;5.47;;;2.00;;
34657;SDS011;20865;43.312;27.152;2022-09-17T19:46:18;11.93;;;2.02;;
34657;SDS011;20865;43.312;27.152;2022-09-17T19:48:48;8.20;;;2.40;;
34657;SDS011;20865;43.312;27.152;2022-09-17T19:51:20;8.45;;;2.00;;
34657;SDS011;20865;43.312;27.152;2022-09-17T19:53:50;7.90;;;2.55;;
34657;SDS011;20865;43.312;27.152;2022-09-17T19:56:19;7.90;;;2.33;;
34657;SDS011;20865;43.312;27.152;2022-09-17T19:58:48;7.17;;;2.37;;
34657;SDS011;20865;43.312;27.152;2022-09-17T20:01:16;3.83;;;1.80;;
34657;SDS011;20865;43.312;27.152;2022-09-17T20:03:45;7.45;;;1.45;;
34657;SDS011;20865;43.312;27.152;2022-09-17T20:06:17;8.80;;;1.25;;
34657;SDS011;20865;43.312;27.152;2022-09-17T20:08:47;5.80;;;1.32;;
34657;SDS011;20865;43.312;27.152;2022-09-17T20:11:16;2.02;;;1.10;;
34657;SDS011;20865;43.312;27.152;2022-09-17T20:13:46;10.40;;;1.50;;
34657;SDS011;20865;43.312;27.152;2022-09-17T20:16:20;1.57;;;1.10;;
34657;SDS011;20865;43.312;27.152;2022-09-17T20:18:44;0.85;;;0.68;;